Rose, New York
Current Conditions -  °F | °C
As of 9:35 AM on Saturday 20 Dec 2014 (Local Time) from KFZY Reporting Station
Scattered Clouds Scattered Clouds  
Wind Chill: 26°   Ceiling: Unl
Heat Index: 26°   Visibility: 10mi
Dew Point: 18°   Wind: 3mph
Humidity: 71%   Direction: 10°N
Pressure: 30.3"   Gusts: NA
Location:  43.15°N, 76.88°W
Report Text: KFZY 201435Z AUTO 01003KT 10SM SCT018 M03/M08 A3030 RMK AO2 T10331078
Loading
Personal Weather Stations






























Interactive Weather Map New forecast layout! Learn more

10-Day Weather Forecast

Advertisements
Track Severe Weather on mobile